Time;durP1;ratioP1;P1;durP2;ratioP2;P2;SDS_P1;SDS_P2;PMS_P1;PMS_P2;Temp;Humidity;BMP_temperature;BMP_pressure;BME280_temperature;BME280_humidity;BME280_pressure;Samples;Min_cycle;Max_cycle;Signal;HPM_P1;HPM_P2
2023/05/23 14:07:38;;;;;;;11.70;9.10;;;;;;;24.27;48.22;99782.48;126412;1292;635694;-61
2023/05/23 14:10:40;;;;;;;11.10;8.50;;;;;;;24.09;48.50;99784.73;131214;1268;114815;-61
2023/05/23 14:13:42;;;;;;;13.10;9.10;;;;;;;24.06;49.07;99788.39;129060;1269;114698;-61
2023/05/23 14:16:44;;;;;;;11.20;9.00;;;;;;;24.03;49.28;99789.36;129280;1268;114721;-61
2023/05/23 14:19:46;;;;;;;11.70;8.50;;;;;;;23.96;49.53;99792.33;127159;1285;2728604;-61
2023/05/23 14:22:50;;;;;;;12.50;8.60;;;;;;;23.81;49.51;99786.61;129088;1268;114715;-61
2023/05/23 14:25:52;;;;;;;16.00;9.80;;;;;;;23.79;49.85;99791.77;129224;1279;114860;-62
2023/05/23 14:28:54;;;;;;;16.30;9.20;;;;;;;23.78;49.83;99799.41;129142;1268;114757;-62
2023/05/23 14:31:59;;;;;;;11.40;9.20;;;;;;;23.76;49.98;99796.58;129032;1267;129067;-61
2023/05/23 14:35:01;;;;;;;10.60;9.40;;;;;;;23.77;49.76;99799.10;129201;1282;115230;-61
2023/05/23 14:38:04;;;;;;;14.50;9.70;;;;;;;23.74;49.89;99801.02;129190;1268;114790;-61
2023/05/23 14:41:06;;;;;;;14.00;9.10;;;;;;;23.69;50.21;99799.73;129174;1286;115066;-61
2023/05/23 14:44:08;;;;;;;10.50;8.90;;;;;;;23.66;50.39;99798.76;129160;1266;114760;-61
2023/05/23 14:47:10;;;;;;;11.50;8.50;;;;;;;23.59;50.13;99800.30;128960;1287;114984;-61
2023/05/23 14:50:13;;;;;;;11.70;7.70;;;;;;;23.46;50.35;99801.52;129209;1263;116507;-62
2023/05/23 14:53:15;;;;;;;12.80;8.10;;;;;;;23.38;50.30;99800.46;129565;1267;114784;-62
2023/05/23 14:56:18;;;;;;;13.40;8.30;;;;;;;23.34;50.61;99803.64;129254;1285;114717;-62
2023/05/23 14:59:20;;;;;;;14.30;9.00;;;;;;;23.33;50.53;99801.02;129080;1271;114881;-61
2023/05/23 15:02:22;;;;;;;8.80;7.40;;;;;;;23.36;50.75;99802.27;129317;1285;114827;-61
2023/05/23 15:05:25;;;;;;;8.90;7.70;;;;;;;23.41;50.58;99796.70;129111;1268;115135;-61
2023/05/23 15:08:28;;;;;;;11.80;8.50;;;;;;;23.44;50.46;99790.44;129383;1264;115604;-62
2023/05/23 15:11:31;;;;;;;11.40;7.80;;;;;;;23.48;50.45;99790.35;128865;1272;128395;-64
2023/05/23 15:14:35;;;;;;;12.70;8.00;;;;;;;23.51;50.51;99791.52;129284;1269;115255;-66
2023/05/23 15:17:37;;;;;;;12.30;7.20;;;;;;;23.57;50.65;99792.89;129299;1268;114706;-66
2023/05/23 15:20:40;;;;;;;10.80;7.50;;;;;;;23.63;50.76;99790.48;129382;1266;114710;-62
2023/05/23 15:23:42;;;;;;;10.40;7.80;;;;;;;23.68;50.54;99792.65;129352;1268;115311;-61
2023/05/23 15:26:44;;;;;;;10.80;7.40;;;;;;;23.73;50.20;99790.53;128967;1287;114877;-62
2023/05/23 15:29:47;;;;;;;9.40;7.50;;;;;;;23.69;50.23;99790.23;129219;1287;114801;-64
2023/05/23 15:32:49;;;;;;;13.30;7.40;;;;;;;23.67;49.78;99790.27;129274;1266;114837;-61
2023/05/23 15:35:52;;;;;;;14.10;7.70;;;;;;;23.57;49.65;99789.02;129206;1269;115199;-61
2023/05/23 15:38:58;;;;;;;9.70;7.50;;;;;;;23.49;49.92;99785.65;129189;1287;114896;-61
2023/05/23 15:42:00;;;;;;;11.40;7.40;;;;;;;23.41;49.71;99784.84;129198;1284;114732;-65
2023/05/23 15:45:03;;;;;;;14.20;7.70;;;;;;;23.35;50.00;99782.52;129303;1273;114776;-64
2023/05/23 15:48:06;;;;;;;12.60;8.40;;;;;;;23.38;50.26;99780.91;129324;1269;114829;-62
2023/05/23 15:51:08;;;;;;;11.30;7.00;;;;;;;23.45;50.33;99780.52;129234;1286;114736;-62
2023/05/23 15:54:11;;;;;;;10.60;8.30;;;;;;;23.49;50.22;99778.17;129260;1268;114925;-62
2023/05/23 15:57:13;;;;;;;8.70;7.40;;;;;;;23.46;50.28;99774.75;129207;1273;114710;-65
2023/05/23 16:00:16;;;;;;;10.20;8.00;;;;;;;23.36;50.25;99773.65;129158;1283;114903;-64
2023/05/23 16:03:18;;;;;;;16.30;7.90;;;;;;;23.21;50.34;99770.73;129156;1266;114747;-64
2023/05/23 16:06:22;;;;;;;9.90;7.50;;;;;;;23.09;50.65;99773.18;129104;1287;114720;-61
2023/05/23 16:09:24;;;;;;;13.40;7.30;;;;;;;22.98;50.46;99772.23;129237;1279;115276;-64
2023/05/23 16:12:27;;;;;;;11.50;7.10;;;;;;;22.86;50.43;99768.77;130210;1256;114789;-64
2023/05/23 16:15:33;;;;;;;10.20;7.10;;;;;;;22.75;50.29;99766.50;129838;1259;114874;-62
2023/05/23 16:18:35;;;;;;;9.60;6.00;;;;;;;22.63;50.45;99765.48;130184;1259;115219;-62
2023/05/23 16:21:37;;;;;;;8.50;6.40;;;;;;;22.50;50.40;99763.20;130122;1275;114776;-62
2023/05/23 16:24:40;;;;;;;7.10;6.20;;;;;;;22.38;50.36;99763.92;130189;1257;114809;-66
2023/05/23 16:27:43;;;;;;;7.20;6.20;;;;;;;22.25;50.42;99763.30;130160;1254;115275;-64
2023/05/23 16:30:45;;;;;;;15.10;6.90;;;;;;;22.12;50.51;99764.30;130162;1275;115303;-66
2023/05/23 16:33:47;;;;;;;6.80;5.90;;;;;;;22.02;51.15;99767.77;130181;1275;115139;-62
2023/05/23 16:36:52;;;;;;;7.30;5.80;;;;;;;21.93;51.39;99765.28;129977;1275;114735;-64
2023/05/23 16:39:54;;;;;;;9.70;6.30;;;;;;;21.86;51.74;99760.79;130220;1275;115497;-61
2023/05/23 16:42:57;;;;;;;10.30;6.60;;;;;;;21.80;51.64;99760.66;130053;1257;114682;-62
2023/05/23 16:45:59;;;;;;;16.90;11.50;;;;;;;21.79;51.87;99760.92;130186;1256;114754;-63
2023/05/23 16:49:02;;;;;;;10.10;8.40;;;;;;;21.84;51.92;99762.22;130164;1275;115201;-62
2023/05/23 16:52:04;;;;;;;8.60;7.20;;;;;;;21.94;51.98;99767.54;130071;1257;114773;-62
2023/05/23 16:55:06;;;;;;;11.50;7.30;;;;;;;22.04;52.06;99763.60;130171;1268;115171;-62
2023/05/23 16:58:08;;;;;;;15.80;7.80;;;;;;;22.14;52.20;99765.01;130271;1275;114789;-63
2023/05/23 17:01:11;;;;;;;12.70;7.50;;;;;;;22.23;51.93;99769.49;130026;1272;114827;-61
2023/05/23 17:04:13;;;;;;;9.70;7.90;;;;;;;22.26;51.86;99768.52;130049;1275;114739;-62
2023/05/23 17:07:15;;;;;;;13.10;7.70;;;;;;;22.25;51.77;99769.85;130085;1275;115294;-62
2023/05/23 17:10:17;;;;;;;12.50;6.80;;;;;;;22.22;52.07;99774.72;130027;1266;116294;-61
2023/05/23 17:13:19;;;;;;;9.40;6.90;;;;;;;22.17;52.13;99781.31;129986;1275;114692;-61
2023/05/23 17:16:22;;;;;;;9.00;7.20;;;;;;;22.09;52.22;99791.07;130037;1268;115081;-61
2023/05/23 17:19:25;;;;;;;8.10;7.30;;;;;;;22.01;52.15;99791.73;130229;1258;114677;-61
2023/05/23 17:22:27;;;;;;;10.80;7.80;;;;;;;21.91;52.37;99794.42;130062;1275;115386;-61
2023/05/23 17:25:30;;;;;;;8.00;6.80;;;;;;;21.81;52.61;99800.31;130070;1267;114711;-61
2023/05/23 17:28:32;;;;;;;12.60;7.50;;;;;;;21.74;52.75;99810.03;130156;1267;114773;-61
2023/05/23 17:31:34;;;;;;;11.50;7.60;;;;;;;21.63;52.97;99809.48;129873;1257;115145;-61
2023/05/23 17:34:36;;;;;;;9.40;7.10;;;;;;;21.52;53.19;99810.91;130346;1264;114701;-61
2023/05/23 17:37:42;;;;;;;13.10;8.20;;;;;;;21.43;53.58;99811.68;130065;1268;114787;-61
2023/05/23 17:40:45;;;;;;;13.40;9.10;;;;;;;21.32;53.89;99817.15;130014;1275;114875;-61
2023/05/23 17:43:47;;;;;;;14.90;10.40;;;;;;;21.21;54.15;99821.59;130203;1275;114751;-62
2023/05/23 17:46:50;;;;;;;12.10;10.70;;;;;;;21.10;54.33;99828.30;130010;1267;114716;-61
2023/05/23 17:49:52;;;;;;;22.80;13.60;;;;;;;20.99;54.74;99823.07;130058;1275;114690;-62
2023/05/23 17:52:55;;;;;;;21.00;13.80;;;;;;;20.89;55.08;99825.46;130048;1259;114702;-61
2023/05/23 17:55:57;;;;;;;20.00;12.30;;;;;;;20.77;55.41;99828.30;130099;1256;115078;-60
2023/05/23 17:59:03;;;;;;;15.40;11.40;;;;;;;20.67;55.80;99824.92;130124;1258;114799;-61
2023/05/23 18:02:05;;;;;;;;;;;;;;;20.55;56.18;99826.83;129753;1271;127749;-62
2023/05/23 18:05:08;;;;;;;12.30;9.80;;;;;;;20.44;56.67;99833.38;130140;1267;115206;-62
2023/05/23 18:08:10;;;;;;;13.80;9.70;;;;;;;20.33;56.93;99835.33;130120;1257;115287;-62
2023/05/23 18:11:13;;;;;;;13.10;10.20;;;;;;;20.21;57.28;99841.02;130183;1253;114705;-61
2023/05/23 18:14:17;;;;;;;17.60;12.30;;;;;;;20.12;57.67;99845.20;130231;1256;115091;-63
2023/05/23 18:17:20;;;;;;;;;;;;;;;20.00;58.10;99844.86;130013;1275;114844;-61
2023/05/23 18:20:22;;;;;;;12.00;9.40;;;;;;;19.86;58.47;99844.92;130135;1275;114700;-61
2023/05/23 18:23:26;;;;;;;12.10;10.20;;;;;;;19.76;58.73;99859.84;129992;1272;114715;-61
2023/05/23 18:26:29;;;;;;;12.90;9.80;;;;;;;19.66;59.08;99866.61;130106;1267;115228;-61
2023/05/23 18:29:32;;;;;;;13.30;10.10;;;;;;;19.56;59.48;99869.66;130151;1267;115108;-62
2023/05/23 18:32:34;;;;;;;12.40;10.10;;;;;;;19.48;59.84;99875.91;130115;1272;114718;-65
2023/05/23 18:35:36;;;;;;;15.40;10.70;;;;;;;19.36;60.04;99885.52;130258;1275;114700;-64
2023/05/23 18:38:40;;;;;;;12.50;10.70;;;;;;;19.26;60.39;99890.90;130192;1275;128809;-64
2023/05/23 18:41:42;;;;;;;14.70;12.00;;;;;;;19.19;60.62;99898.45;129791;1275;114818;-62
2023/05/23 18:44:44;;;;;;;12.60;10.70;;;;;;;19.11;60.92;99903.87;130081;1257;114762;-61
2023/05/23 18:47:47;;;;;;;11.90;10.60;;;;;;;19.02;61.16;99904.91;130106;1273;114710;-63
2023/05/23 18:50:49;;;;;;;13.40;10.80;;;;;;;18.94;61.46;99910.89;130219;1275;114702;-63
2023/05/23 18:53:52;;;;;;;12.30;10.80;;;;;;;18.87;61.97;99913.68;130136;1275;114716;-63
2023/05/23 18:56:54;;;;;;;14.80;12.50;;;;;;;18.79;62.15;99915.79;130134;1275;114764;-62
2023/05/23 18:59:57;;;;;;;14.20;12.10;;;;;;;18.72;62.36;99914.08;130126;1275;114812;-61
2023/05/23 19:02:59;;;;;;;12.50;10.90;;;;;;;18.66;62.87;99926.03;130199;1256;114706;-64
2023/05/23 19:06:03;;;;;;;11.40;10.30;;;;;;;18.55;63.10;99926.11;130055;1260;115249;-64
2023/05/23 19:09:08;;;;;;;11.60;9.70;;;;;;;18.45;63.23;99928.95;129932;1275;114706;-64
2023/05/23 19:12:10;;;;;;;12.80;9.10;;;;;;;18.36;63.39;99933.39;129788;1256;114775;-62
2023/05/23 19:15:13;;;;;;;11.80;9.60;;;;;;;18.29;63.62;99933.80;130332;1261;114736;-62
2023/05/23 19:18:17;;;;;;;10.20;9.00;;;;;;;18.23;63.79;99939.75;130238;1255;114697;-62
2023/05/23 19:21:19;;;;;;;11.10;8.90;;;;;;;18.16;64.09;99939.81;130132;1256;114792;-64
2023/05/23 19:24:22;;;;;;;9.90;8.40;;;;;;;18.11;64.16;99942.63;130069;1256;114706;-62
2023/05/23 19:27:24;;;;;;;9.80;8.80;;;;;;;18.05;64.36;99938.98;130176;1254;115115;-62
2023/05/23 19:30:26;;;;;;;10.30;9.00;;;;;;;17.99;64.44;99938.96;129789;1260;114852;-62
2023/05/23 19:33:28;;;;;;;11.50;9.20;;;;;;;17.95;64.62;99942.36;130153;1255;114631;-62
2023/05/23 19:36:31;;;;;;;12.00;9.60;;;;;;;17.91;64.99;99943.36;130564;1257;114789;-62
2023/05/23 19:39:34;;;;;;;14.20;9.50;;;;;;;17.87;65.17;99945.90;130146;1260;115242;-63
2023/05/23 19:42:36;;;;;;;13.90;9.70;;;;;;;17.82;65.54;99948.84;130252;1265;114761;-62
2023/05/23 19:45:39;;;;;;;11.90;10.40;;;;;;;17.76;65.87;99950.45;130109;1275;115263;-63
2023/05/23 19:48:41;;;;;;;12.10;10.70;;;;;;;17.69;66.25;99956.43;130235;1257;117411;-63
2023/05/23 19:51:44;;;;;;;14.10;11.40;;;;;;;17.63;66.55;99956.26;130365;1257;114714;-62
2023/05/23 19:54:46;;;;;;;14.70;11.00;;;;;;;17.57;66.78;99961.57;130097;1258;114763;-63
2023/05/23 19:57:49;;;;;;;13.20;10.90;;;;;;;17.51;67.22;99959.55;130082;1257;114791;-61
2023/05/23 20:00:51;;;;;;;14.00;11.20;;;;;;;17.45;67.42;99960.61;130083;1257;114751;-64
2023/05/23 20:03:53;;;;;;;16.00;11.40;;;;;;;17.38;67.60;99960.48;129843;1260;114741;-64
2023/05/23 20:06:56;;;;;;;14.80;11.80;;;;;;;17.31;67.87;99963.40;130073;1255;114754;-63
2023/05/23 20:09:58;;;;;;;15.70;11.80;;;;;;;17.24;68.16;99963.84;130123;1258;114706;-62
2023/05/23 20:13:00;;;;;;;16.50;12.20;;;;;;;17.20;68.39;99965.80;130135;1266;115382;-62
2023/05/23 20:16:04;;;;;;;15.60;11.80;;;;;;;17.16;68.66;99971.66;129993;1266;128929;-63
2023/05/23 20:19:06;;;;;;;13.30;11.60;;;;;;;17.12;68.84;99975.09;130285;1275;114675;-62
2023/05/23 20:22:09;;;;;;;16.60;11.90;;;;;;;17.09;69.04;99981.98;130187;1266;114714;-63
2023/05/23 20:25:12;;;;;;;12.70;11.40;;;;;;;17.05;69.14;99984.84;130169;1256;114876;-63
2023/05/23 20:28:14;;;;;;;14.00;11.10;;;;;;;17.02;69.39;99989.64;130191;1256;114617;-62
2023/05/23 20:31:17;;;;;;;15.30;11.70;;;;;;;16.98;69.45;99991.23;129972;1258;114734;-62
2023/05/23 20:34:20;;;;;;;14.40;11.70;;;;;;;16.94;69.70;99988.42;130159;1258;114711;-63
2023/05/23 20:37:23;;;;;;;16.50;11.90;;;;;;;16.91;69.90;99990.64;129985;1257;116323;-62
2023/05/23 20:40:28;;;;;;;13.60;12.20;;;;;;;16.88;69.99;99986.91;130188;1257;114694;-63
2023/05/23 20:43:36;;;;;;;15.20;12.10;;;;;;;16.85;70.13;99988.37;130051;1257;115096;-63
2023/05/23 20:46:42;;;;;;;13.20;11.80;;;;;;;16.82;70.21;99992.27;129805;1275;114911;-63
2023/05/23 20:49:46;;;;;;;15.60;13.30;;;;;;;16.79;70.39;99999.17;130009;1275;128759;-63
2023/05/23 20:52:52;;;;;;;18.40;13.10;;;;;;;16.77;70.47;100004.27;129881;1267;115977;-63
2023/05/23 20:55:56;;;;;;;16.50;13.40;;;;;;;16.74;70.60;100006.84;129948;1277;115042;-63
2023/05/23 20:59:17;;;;;;;15.70;12.40;;;;;;;16.71;70.80;100011.35;129948;1278;114891;-62
2023/05/23 21:02:30;;;;;;;16.20;13.20;;;;;;;16.69;70.93;100012.63;129941;1267;114742;-63
2023/05/23 21:06:42;;;;;;;15.60;13.80;;;;;;;16.66;71.14;100021.50;129896;1259;127640;-63
2023/05/23 21:09:49;;;;;;;18.90;13.60;;;;;;;16.61;71.34;100021.35;129865;1259;115170;-62
2023/05/23 21:12:53;;;;;;;;;;;;;;;16.58;71.67;100022.13;130082;1257;115065;-62
2023/05/23 21:15:58;;;;;;;14.80;13.10;;;;;;;16.55;71.67;100021.67;130338;1256;114802;-62
2023/05/23 21:19:00;;;;;;;18.00;13.80;;;;;;;16.52;71.60;100023.86;129866;1274;114754;-63
2023/05/23 21:22:03;;;;;;;15.70;13.80;;;;;;;16.50;71.80;100022.05;130016;1275;114725;-63
2023/05/23 21:25:06;;;;;;;14.20;12.70;;;;;;;16.48;72.09;100025.77;130223;1254;114748;-63
2023/05/23 21:28:08;;;;;;;17.00;13.80;;;;;;;16.46;72.25;100025.11;130180;1258;114738;-64
2023/05/23 21:31:11;;;;;;;19.10;14.90;;;;;;;16.44;72.32;100031.36;130075;1254;115135;-64
2023/05/23 21:34:14;;;;;;;22.10;14.50;;;;;;;16.40;72.51;100036.64;129955;1257;114703;-63
2023/05/23 21:37:16;;;;;;;21.60;15.70;;;;;;;16.38;72.40;100039.94;130010;1255;114728;-63
2023/05/23 21:40:18;;;;;;;17.10;14.60;;;;;;;16.36;72.68;100044.18;130486;1257;114708;-63
2023/05/23 21:43:20;;;;;;;15.90;14.20;;;;;;;16.33;72.89;100042.96;130025;1275;127850;-63
2023/05/23 21:46:23;;;;;;;19.00;15.80;;;;;;;16.30;73.05;100038.36;130054;1275;114833;-63
2023/05/23 21:49:25;;;;;;;17.50;15.50;;;;;;;16.27;73.21;100038.77;130285;1256;115013;-63
2023/05/23 21:52:27;;;;;;;17.30;15.40;;;;;;;16.24;73.41;100038.63;130118;1260;114798;-63
2023/05/23 21:55:29;;;;;;;18.30;16.30;;;;;;;16.21;73.34;100040.86;130069;1257;115138;-63
2023/05/23 21:58:32;;;;;;;19.30;16.40;;;;;;;16.17;73.57;100042.95;130153;1264;115381;-63
2023/05/23 22:01:34;;;;;;;21.80;17.70;;;;;;;16.13;73.71;100038.77;129890;1260;114821;-64
2023/05/23 22:04:37;;;;;;;21.20;18.10;;;;;;;16.08;73.83;100034.80;129996;1275;115272;-63
2023/05/23 22:07:39;;;;;;;21.00;17.70;;;;;;;16.04;73.73;100041.23;130048;1266;114713;-62
2023/05/23 22:10:42;;;;;;;20.70;18.50;;;;;;;16.00;73.99;100046.24;130164;1275;114960;-62
2023/05/23 22:13:45;;;;;;;21.20;18.20;;;;;;;15.95;74.12;100048.05;130222;1256;114712;-61
2023/05/23 22:16:48;;;;;;;21.00;17.70;;;;;;;15.91;74.11;100055.94;130181;1253;114719;-63
2023/05/23 22:19:52;;;;;;;21.40;18.30;;;;;;;15.87;74.18;100058.42;130058;1264;115352;-62
2023/05/23 22:22:54;;;;;;;21.70;18.70;;;;;;;15.83;74.04;100061.90;130308;1275;114705;-63
2023/05/23 22:25:56;;;;;;;24.30;19.70;;;;;;;15.77;74.41;100065.20;130104;1275;114761;-62
2023/05/23 22:28:59;;;;;;;23.60;19.80;;;;;;;15.72;74.37;100068.81;130360;1251;115196;-62
2023/05/23 22:32:02;;;;;;;22.00;18.80;;;;;;;15.68;74.49;100068.80;130260;1256;114969;-62
2023/05/23 22:35:05;;;;;;;27.00;19.20;;;;;;;15.66;74.59;100065.35;130134;1256;114786;-64
2023/05/23 22:38:08;;;;;;;22.00;19.30;;;;;;;15.63;74.83;100064.98;130101;1257;114741;-63
2023/05/23 22:41:11;;;;;;;25.10;20.10;;;;;;;15.61;74.85;100071.08;130165;1254;115485;-62
2023/05/23 22:44:14;;;;;;;24.50;19.70;;;;;;;15.60;74.87;100067.90;130169;1258;114792;-64
2023/05/23 22:47:17;;;;;;;21.60;19.30;;;;;;;15.60;74.96;100066.84;129995;1254;114689;-63
2023/05/23 22:50:21;;;;;;;23.60;20.70;;;;;;;15.60;75.17;100066.64;130090;1256;115421;-63
2023/05/23 22:53:23;;;;;;;25.30;19.80;;;;;;;15.60;75.22;100070.60;130176;1254;114729;-64
2023/05/23 22:56:25;;;;;;;25.00;20.00;;;;;;;15.62;75.14;100070.66;130015;1251;114764;-62
2023/05/23 22:59:29;;;;;;;25.80;19.80;;;;;;;15.64;75.43;100068.00;130101;1254;115263;-62
2023/05/23 23:02:33;;;;;;;27.70;20.50;;;;;;;15.67;75.62;100072.84;130034;1254;115261;-62
2023/05/23 23:05:35;;;;;;;23.60;20.50;;;;;;;15.70;75.41;100072.81;130098;1257;114847;-63
2023/05/23 23:08:37;;;;;;;24.00;20.20;;;;;;;15.72;75.66;100073.31;129995;1257;114720;-63
2023/05/23 23:11:39;;;;;;;22.50;19.70;;;;;;;15.76;75.75;100068.38;130020;1258;114825;-63
2023/05/23 23:14:42;;;;;;;23.20;19.50;;;;;;;15.79;75.73;100070.13;130054;1257;114752;-63
2023/05/23 23:17:44;;;;;;;22.10;18.70;;;;;;;15.82;75.66;100065.44;129973;1257;114775;-62
2023/05/23 23:20:47;;;;;;;23.90;19.60;;;;;;;15.83;75.86;100071.05;130105;1256;115378;-62
2023/05/23 23:23:49;;;;;;;22.10;19.40;;;;;;;15.86;75.78;100074.36;129957;1275;115205;-61
2023/05/23 23:26:51;;;;;;;25.40;19.50;;;;;;;15.87;75.96;100073.39;130325;1256;114679;-62
2023/05/23 23:29:53;;;;;;;26.70;20.40;;;;;;;15.89;75.92;100073.39;130183;1256;114764;-63
2023/05/23 23:32:55;;;;;;;22.70;19.50;;;;;;;15.91;75.84;100072.86;129989;1275;114763;-63
2023/05/23 23:35:58;;;;;;;20.60;18.10;;;;;;;15.91;75.96;100069.58;130070;1258;114798;-64
2023/05/23 23:39:00;;;;;;;23.70;18.90;;;;;;;15.92;76.13;100072.38;130038;1253;114767;-63
2023/05/23 23:54:06;;;;;;;17.20;15.00;;;;;;;15.91;76.37;100075.88;130066;1257;115132;-63
2023/05/23 23:57:12;;;;;;;18.50;15.00;;;;;;;15.89;76.47;100080.22;130030;1267;114842;-62
